createdAt,value
2017-05-27T00:00:07.056Z,62.20
2017-05-27T00:02:36.065Z,60.10
2017-05-27T00:05:05.070Z,59.70
2017-05-27T00:07:34.123Z,60.00
2017-05-27T00:10:09.001Z,60.80
2017-05-27T00:13:05.746Z,61.40
2017-05-27T00:15:34.799Z,61.10
2017-05-27T00:18:03.793Z,60.00
2017-05-27T00:20:32.812Z,60.70
2017-05-27T00:23:01.879Z,61.20
2017-05-27T00:25:30.879Z,61.60
2017-05-27T00:28:07.086Z,62.50
2017-05-27T00:30:36.096Z,61.60
2017-05-27T00:33:05.139Z,60.10
2017-05-27T00:35:34.184Z,60.20
2017-05-27T00:38:03.226Z,59.90
2017-05-27T00:43:32.933Z,67.30
2017-05-27T00:46:01.958Z,72.00
2017-05-27T00:51:32.191Z,65.30
2017-05-27T00:54:07.862Z,62.60
2017-05-27T00:56:36.903Z,62.90
2017-05-27T00:59:05.899Z,65.80
2017-05-27T01:01:34.910Z,69.10
2017-05-27T01:04:03.952Z,68.10
2017-05-27T01:06:32.964Z,67.50
2017-05-27T01:09:07.781Z,64.60
2017-05-27T01:11:36.781Z,63.00
2017-05-27T01:14:05.774Z,62.00
2017-05-27T01:16:34.830Z,61.60
2017-05-27T01:19:03.819Z,63.70
2017-05-27T01:21:32.820Z,64.30
2017-05-27T01:24:01.865Z,66.80
2017-05-27T01:26:30.865Z,66.10
2017-05-27T01:28:59.853Z,65.30
2017-05-27T01:31:28.890Z,63.00
2017-05-27T01:33:57.881Z,62.70
2017-05-27T01:36:26.872Z,65.60
2017-05-27T01:38:55.902Z,64.30
2017-05-27T01:41:24.970Z,63.90
2017-05-27T01:43:53.975Z,62.70
2017-05-27T01:46:22.966Z,62.20
2017-05-27T01:48:52.000Z,61.70
2017-05-27T01:54:24.896Z,62.50
2017-05-27T01:56:53.895Z,62.30
2017-05-27T01:59:22.890Z,62.20
2017-05-27T02:01:51.935Z,62.10
2017-05-27T02:04:20.933Z,62.30
2017-05-27T02:06:49.946Z,62.20
2017-05-27T02:09:19.268Z,62.30
2017-05-27T02:11:48.294Z,62.10
2017-05-27T02:14:17.286Z,62.50
2017-05-27T02:16:46.326Z,62.80
2017-05-27T02:22:15.963Z,62.30
2017-05-27T02:24:44.965Z,62.80
2017-05-27T02:27:13.978Z,62.50
2017-05-27T02:29:43.004Z,62.80
2017-05-27T02:32:12.009Z,62.60
2017-05-27T02:34:41.018Z,62.80
2017-05-27T02:37:10.071Z,64.10
2017-05-27T02:39:39.062Z,65.70
2017-05-27T02:42:08.107Z,67.00
2017-05-27T02:44:37.107Z,69.50
2017-05-27T02:47:07.264Z,70.90
2017-05-27T02:49:36.314Z,66.50
2017-05-27T02:52:05.314Z,66.30
2017-05-27T02:54:34.352Z,65.20
2017-05-27T02:57:03.354Z,64.30
2017-05-27T02:59:32.351Z,64.60
2017-05-27T03:02:07.301Z,64.40
2017-05-27T03:04:36.286Z,64.60
2017-05-27T03:07:05.279Z,63.90
2017-05-27T03:09:34.315Z,64.00
2017-05-27T03:12:03.329Z,63.70
2017-05-27T03:14:32.327Z,63.70
2017-05-27T03:17:01.351Z,64.00
2017-05-27T03:19:30.384Z,63.90
2017-05-27T03:21:59.380Z,64.40
2017-05-27T03:24:28.372Z,65.00
2017-05-27T03:26:57.406Z,64.70
2017-05-27T03:32:27.090Z,66.10
2017-05-27T03:34:56.118Z,65.60
2017-05-27T03:37:25.131Z,63.80
2017-05-27T03:39:54.206Z,65.50
2017-05-27T03:42:23.202Z,65.30
2017-05-27T03:45:06.347Z,64.40
2017-05-27T03:47:35.357Z,67.10
2017-05-27T03:50:04.367Z,70.90
2017-05-27T03:52:33.389Z,72.80
2017-05-27T03:55:02.404Z,73.90
2017-05-27T03:57:31.451Z,72.60
2017-05-27T04:00:00.457Z,69.60
2017-05-27T04:02:29.496Z,67.60
2017-05-27T04:04:58.507Z,67.60
2017-05-27T04:07:27.573Z,67.00
2017-05-27T04:09:56.582Z,67.00
2017-05-27T04:12:25.569Z,67.80
2017-05-27T04:14:54.594Z,68.90
2017-05-27T04:17:23.586Z,70.30
2017-05-27T04:19:52.621Z,70.20
2017-05-27T04:22:21.618Z,68.10
2017-05-27T04:25:07.603Z,66.80
2017-05-27T04:27:36.602Z,66.30
2017-05-27T04:30:05.600Z,67.50
2017-05-27T04:32:34.641Z,68.70
2017-05-27T04:35:03.674Z,70.60
2017-05-27T04:37:32.692Z,71.90
2017-05-27T04:40:07.674Z,72.80
2017-05-27T04:42:36.662Z,69.40
2017-05-27T04:45:05.695Z,67.40
2017-05-27T04:47:34.692Z,66.90
2017-05-27T04:50:03.697Z,66.40
2017-05-27T04:55:33.396Z,67.30
2017-05-27T04:58:02.441Z,69.70
2017-05-27T05:00:31.446Z,69.00
2017-05-27T05:03:00.499Z,68.50
2017-05-27T05:08:30.844Z,66.80
2017-05-27T05:10:59.839Z,67.00
2017-05-27T05:13:28.844Z,66.70
2017-05-27T05:15:57.878Z,66.60
2017-05-27T05:18:26.880Z,66.30
2017-05-27T05:21:08.996Z,66.80
2017-05-27T05:23:38.027Z,66.60
2017-05-27T05:26:07.026Z,66.10
2017-05-27T05:28:36.051Z,65.20
2017-05-27T05:31:05.115Z,65.30
2017-05-27T05:36:35.705Z,64.60
2017-05-27T05:39:04.704Z,64.10
2017-05-27T05:41:33.750Z,64.50
2017-05-27T05:44:02.781Z,64.10
2017-05-27T05:46:31.789Z,64.30
2017-05-27T05:49:07.280Z,63.50
2017-05-27T05:51:36.271Z,63.20
2017-05-27T05:54:05.278Z,63.50
2017-05-27T05:56:34.332Z,63.40
2017-05-27T05:59:03.321Z,62.20
2017-05-27T06:01:32.354Z,62.50
2017-05-27T06:04:07.847Z,62.70
2017-05-27T06:06:36.937Z,62.20
2017-05-27T06:09:06.037Z,62.90
2017-05-27T06:11:35.042Z,61.10
2017-05-27T06:14:04.071Z,61.40
2017-05-27T06:16:59.643Z,61.70
2017-05-27T06:19:28.705Z,61.40
2017-05-27T06:21:57.690Z,59.80
2017-05-27T06:24:26.694Z,60.50
2017-05-27T06:26:55.779Z,60.60
2017-05-27T06:29:24.781Z,60.10
2017-05-27T06:32:06.341Z,59.80
2017-05-27T06:34:36.130Z,59.90
2017-05-27T06:37:05.192Z,59.80
2017-05-27T06:39:34.189Z,60.90
2017-05-27T06:42:07.083Z,60.10
2017-05-27T06:48:05.264Z,59.00
2017-05-27T06:57:05.816Z,62.10
2017-05-27T07:03:05.564Z,61.10
2017-05-27T07:09:05.361Z,58.20
2017-05-27T07:18:05.829Z,61.40
2017-05-27T07:24:05.441Z,59.80
2017-05-27T07:33:05.842Z,59.30
2017-05-27T07:45:06.502Z,58.70
2017-05-27T07:48:05.436Z,58.30
2017-05-27T07:53:54.359Z,56.90
2017-05-27T07:56:23.351Z,56.60
2017-05-27T07:58:55.571Z,55.30
2017-05-27T08:01:26.263Z,53.80
2017-05-27T08:04:08.558Z,54.30
2017-05-27T08:07:05.606Z,55.00
2017-05-27T08:09:46.454Z,53.90
2017-05-27T08:12:15.662Z,54.30
2017-05-27T08:18:06.112Z,54.20
2017-05-27T08:20:35.134Z,50.60
2017-05-27T08:26:07.868Z,50.40
2017-05-27T08:28:36.156Z,50.40
2017-05-27T08:31:05.234Z,53.70
2017-05-27T08:33:40.023Z,51.10
2017-05-27T08:39:10.481Z,51.00
2017-05-27T08:41:39.540Z,50.70
2017-05-27T08:44:08.655Z,49.10
2017-05-27T08:46:37.690Z,52.10
2017-05-27T08:49:06.903Z,50.00
2017-05-27T08:52:05.444Z,52.90
2017-05-27T08:54:34.557Z,49.70
2017-05-27T08:57:03.592Z,52.90
2017-05-27T08:59:32.654Z,52.30
2017-05-27T09:02:01.702Z,50.60
2017-05-27T09:04:47.744Z,50.40
2017-05-27T09:13:18.403Z,49.00
2017-05-27T09:15:47.414Z,47.50
2017-05-27T09:30:19.307Z,49.70
2017-05-27T09:35:49.394Z,45.90
2017-05-27T09:38:18.445Z,44.10
2017-05-27T09:40:47.475Z,44.40
2017-05-27T09:43:16.530Z,46.40
2017-05-27T09:45:45.592Z,43.00
2017-05-27T09:51:15.191Z,46.50
2017-05-27T09:53:44.210Z,45.00
2017-05-27T09:56:12.506Z,45.00
2017-05-27T09:58:41.541Z,45.40
2017-05-27T10:01:10.589Z,44.20
2017-05-27T10:06:40.865Z,44.30
2017-05-27T10:09:09.883Z,43.20
2017-05-27T10:11:38.922Z,45.30
2017-05-27T10:17:08.524Z,43.10
2017-05-27T10:26:06.265Z,44.50
2017-05-27T10:28:35.341Z,42.00
2017-05-27T10:43:07.402Z,40.30
2017-05-27T11:00:40.659Z,39.60
2017-05-27T11:03:09.694Z,39.60
2017-05-27T11:05:37.973Z,39.70
2017-05-27T11:08:07.067Z,38.60
2017-05-27T11:16:37.771Z,40.80
2017-05-27T11:19:06.774Z,39.90
2017-05-27T11:21:35.862Z,37.90
2017-05-27T11:27:09.149Z,38.20
2017-05-27T11:29:38.187Z,37.20
2017-05-27T11:32:07.209Z,37.10
2017-05-27T11:34:36.301Z,37.90
2017-05-27T11:37:04.631Z,37.90
2017-05-27T11:39:33.718Z,36.80
2017-05-27T11:45:03.846Z,40.80
2017-05-27T11:47:32.970Z,39.10
2017-05-27T11:50:02.066Z,38.40
2017-05-27T11:52:31.161Z,37.60
2017-05-27T11:58:01.302Z,37.90
2017-05-27T12:00:30.391Z,35.60
2017-05-27T12:02:59.455Z,37.30
2017-05-27T12:05:47.758Z,36.00
2017-05-27T12:08:17.122Z,37.10
2017-05-27T12:10:46.286Z,37.80
2017-05-27T12:13:15.329Z,36.70
2017-05-27T12:15:44.386Z,37.60
2017-05-27T12:18:13.526Z,35.50
2017-05-27T12:23:43.300Z,35.90
2017-05-27T12:26:12.355Z,36.10
2017-05-27T12:28:41.473Z,35.40
2017-05-27T12:31:10.543Z,34.20
2017-05-27T12:39:41.735Z,34.70
2017-05-27T12:42:10.783Z,35.60
2017-05-27T12:44:39.847Z,35.80
2017-05-27T12:50:09.643Z,33.30
2017-05-27T12:52:38.673Z,33.50
2017-05-27T12:55:07.699Z,32.90
2017-05-27T12:57:36.775Z,32.40
2017-05-27T13:00:05.864Z,32.30
2017-05-27T13:08:36.622Z,32.60
2017-05-27T13:11:05.668Z,31.80
2017-05-27T13:13:34.702Z,32.10
2017-05-27T13:16:13.707Z,33.20
2017-05-27T13:21:44.241Z,31.60
2017-05-27T13:24:13.274Z,30.10
2017-05-27T13:26:42.339Z,32.00
2017-05-27T13:32:12.999Z,33.20
2017-05-27T13:40:44.184Z,32.80
2017-05-27T13:55:15.692Z,30.20
2017-05-27T13:57:44.711Z,29.40
2017-05-27T14:03:14.701Z,28.30
2017-05-27T14:05:43.743Z,29.90
2017-05-27T14:08:12.815Z,29.50
2017-05-27T14:10:41.862Z,29.10
2017-05-27T14:13:10.928Z,26.60
2017-05-27T14:16:06.283Z,27.30
2017-05-27T14:18:35.411Z,25.80
2017-05-27T14:21:04.463Z,26.90
2017-05-27T14:23:33.488Z,26.30
2017-05-27T14:50:07.359Z,25.10
2017-05-27T14:52:36.376Z,25.50
2017-05-27T15:04:07.817Z,25.30
2017-05-27T15:06:36.899Z,26.70
2017-05-27T15:09:05.944Z,25.40
2017-05-27T15:14:35.742Z,25.20
2017-05-27T15:17:04.832Z,26.10
2017-05-27T15:19:33.873Z,25.60
2017-05-27T15:25:04.170Z,23.90
2017-05-27T15:33:40.797Z,23.50
2017-05-27T15:39:10.426Z,22.70
2017-05-27T15:44:40.960Z,24.20
2017-05-27T15:47:10.135Z,22.80
2017-05-27T15:52:40.041Z,22.00
2017-05-27T15:55:15.703Z,21.10
2017-05-27T15:57:44.761Z,24.20
2017-05-27T16:00:13.810Z,23.20
2017-05-27T16:02:42.954Z,22.10
2017-05-27T16:05:12.005Z,22.30
2017-05-27T16:34:47.674Z,22.80
2017-05-27T16:40:17.577Z,23.30
2017-05-27T16:42:46.621Z,23.10
2017-05-27T16:48:16.712Z,22.30
2017-05-27T16:56:47.602Z,22.90
2017-05-27T17:08:19.683Z,23.40
2017-05-27T17:10:48.710Z,23.90
2017-05-27T17:19:19.126Z,23.00
2017-05-27T17:21:48.262Z,23.20
2017-05-27T17:24:17.732Z,24.10
2017-05-27T17:27:07.491Z,24.10
2017-05-27T17:29:36.595Z,23.70
2017-05-27T17:32:05.619Z,24.40
2017-05-27T17:34:34.702Z,24.20
2017-05-27T17:37:10.182Z,24.30
2017-05-27T17:57:42.769Z,25.30
2017-05-27T18:00:11.791Z,24.30
2017-05-27T18:09:06.860Z,26.60
2017-05-27T18:11:35.929Z,26.80
2017-05-27T18:17:06.211Z,27.10
2017-05-27T18:19:35.276Z,28.20
2017-05-27T18:22:10.446Z,28.20
2017-05-27T18:25:06.880Z,29.00
2017-05-27T18:27:35.980Z,29.90
2017-05-27T18:30:05.089Z,30.30
2017-05-27T18:32:34.145Z,29.80
2017-05-27T18:41:10.281Z,30.70
2017-05-27T18:44:06.786Z,31.30
2017-05-27T18:46:35.883Z,31.40
2017-05-27T18:49:04.943Z,30.70
2017-05-27T18:51:34.922Z,31.10
2017-05-27T18:54:04.831Z,31.50
2017-05-27T18:59:34.978Z,31.90
2017-05-27T19:02:04.053Z,30.70
2017-05-27T19:07:33.929Z,31.80
2017-05-27T19:10:02.990Z,31.90
2017-05-27T19:12:32.078Z,32.40
2017-05-27T19:15:01.165Z,33.00
2017-05-27T19:17:30.227Z,33.10
2017-05-27T19:19:59.351Z,33.20
2017-05-27T19:28:30.440Z,33.10
2017-05-27T19:30:59.511Z,32.50
2017-05-27T19:33:28.569Z,32.90
2017-05-27T19:35:57.673Z,33.20
2017-05-27T19:38:26.715Z,33.50
2017-05-27T19:40:55.746Z,33.50
2017-05-27T19:43:25.664Z,33.70
2017-05-27T19:45:54.764Z,34.10
2017-05-27T19:51:25.250Z,34.70
2017-05-27T19:53:54.297Z,35.10
2017-05-27T19:56:23.315Z,35.90
2017-05-27T20:02:07.514Z,36.20
2017-05-27T20:05:06.770Z,36.50
2017-05-27T20:10:35.760Z,36.40
2017-05-27T20:13:08.356Z,36.50
2017-05-27T20:21:39.241Z,38.00
2017-05-27T20:27:09.562Z,38.80
2017-05-27T20:30:07.111Z,37.80
2017-05-27T20:32:36.175Z,37.60
2017-05-27T20:38:06.457Z,38.10
2017-05-27T20:46:37.477Z,39.50
2017-05-27T20:49:08.238Z,39.50
2017-05-27T20:51:37.275Z,39.70
2017-05-27T20:54:06.351Z,40.20
2017-05-27T21:05:37.327Z,40.70
2017-05-27T21:08:06.404Z,41.10
2017-05-27T21:10:35.428Z,41.40
2017-05-27T21:13:04.504Z,41.60
2017-05-27T21:15:33.962Z,42.00
2017-05-27T21:21:03.798Z,42.40
2017-05-27T21:23:32.819Z,42.60
2017-05-27T21:26:01.839Z,42.70
2017-05-27T21:31:31.468Z,44.50
2017-05-27T21:37:01.981Z,44.30
2017-05-27T21:39:30.987Z,44.30
2017-05-27T21:45:08.001Z,45.40
2017-05-27T21:47:37.051Z,45.00
2017-05-27T21:50:06.256Z,45.40
2017-05-27T21:52:35.360Z,46.60
2017-05-27T21:55:04.383Z,47.60
2017-05-27T21:57:33.468Z,47.10
2017-05-27T22:00:08.298Z,46.00
2017-05-27T22:02:37.331Z,45.80
2017-05-27T22:05:06.355Z,46.40
2017-05-27T22:10:36.506Z,45.50
2017-05-27T22:13:09.306Z,45.60
2017-05-27T22:15:38.407Z,46.10
2017-05-27T22:18:07.448Z,45.90
2017-05-27T22:20:36.502Z,45.90
2017-05-27T22:23:05.590Z,45.80
2017-05-27T22:25:34.612Z,46.30
2017-05-27T22:31:05.116Z,46.30
2017-05-27T22:36:35.452Z,47.00
2017-05-27T22:39:04.460Z,47.00
2017-05-27T22:41:33.490Z,47.50
2017-05-27T22:44:02.558Z,47.50
2017-05-27T22:46:31.576Z,48.00
2017-05-27T22:49:00.648Z,48.10
2017-05-27T22:51:29.658Z,48.10
2017-05-27T22:53:58.727Z,48.20
2017-05-27T22:56:27.897Z,47.70
2017-05-27T22:58:56.932Z,48.10
2017-05-27T23:04:27.561Z,48.00
2017-05-27T23:06:56.608Z,50.60
2017-05-27T23:12:26.843Z,49.10
2017-05-27T23:17:39.786Z,49.50
2017-05-27T23:20:08.847Z,49.20
2017-05-27T23:22:37.916Z,49.10
2017-05-27T23:28:08.660Z,49.70
2017-05-27T23:30:37.705Z,50.30
2017-05-27T23:33:06.763Z,50.10
2017-05-27T23:35:35.787Z,50.40
2017-05-27T23:38:04.835Z,50.20
2017-05-27T23:40:33.885Z,50.60
2017-05-27T23:43:09.537Z,50.90
2017-05-27T23:45:38.615Z,51.00
2017-05-27T23:48:07.693Z,50.90
2017-05-27T23:50:36.712Z,51.10
2017-05-27T23:53:09.613Z,51.10
2017-05-27T23:55:38.635Z,51.30
2017-05-27T23:58:07.708Z,50.70
